CST,Max TemperatureF,Mean TemperatureF,Min TemperatureF,Max Dew PointF,MeanDew PointF,Min DewpointF,Max Humidity, Mean Humidity, Min Humidity, Max Sea Level PressureIn, Mean Sea Level PressureIn, Min Sea Level PressureIn, Max VisibilityMiles, Mean VisibilityMiles, Min VisibilityMiles, Max Wind SpeedMPH, Mean Wind SpeedMPH, Max Gust SpeedMPH,PrecipitationIn, CloudCover, Events, WindDirDegrees
2012-11-1,64,48,32,37,30,23,75,53,27,30.09,30.01,29.96,10,10,9,8,1,,0.00,1,,236
2012-11-2,66,55,44,41,35,30,66,49,32,30.05,30.00,29.93,10,10,5,8,3,,0.00,0,,48
2012-11-3,80,61,42,57,42,30,62,51,44,30.14,30.01,29.93,10,10,4,21,8,29,0.00,1,,339
2012-11-4,55,47,39,34,32,28,70,58,38,30.23,30.18,30.14,10,10,7,10,6,,0.00,0,,15
2012-11-5,53,46,39,37,33,28,71,62,44,30.16,30.09,30.03,10,10,7,8,5,,0.02,6,,79
2012-11-6,51,48,44,39,37,36,76,69,62,30.09,30.04,29.98,10,8,3,12,5,,0.00,8,,288
2012-11-7,53,45,35,37,34,27,76,64,50,30.20,30.07,29.98,10,10,6,16,6,23,0.00,5,,317
2012-11-8,57,44,30,37,31,23,81,62,44,30.30,30.22,30.17,10,8,2,7,2,,0.00,0,,149
2012-11-9,71,54,37,48,38,28,70,53,39,30.23,30.16,30.10,10,10,10,10,6,17,0.00,0,,172
2012-11-10,73,62,50,52,43,37,67,52,36,30.23,30.16,30.10,10,10,10,13,6,21,0.00,0,,166
2012-11-11,73,63,53,54,49,43,82,60,46,30.14,30.05,29.96,10,10,8,21,12,37,0.00,4,Thunderstorm,164
2012-11-12,53,43,33,46,30,21,77,62,37,30.49,30.35,30.05,10,10,5,16,7,22,0.77,3,,318
2012-11-13,50,39,28,25,23,21,75,55,35,30.55,30.47,30.44,10,10,10,10,2,,0.00,0,,38
2012-11-14,48,42,35,30,24,21,65,54,46,30.46,30.40,30.35,10,10,7,12,5,,0.00,1,,36
2012-11-15,53,42,30,32,27,21,70,56,38,30.40,30.35,30.32,10,10,8,8,4,,0.00,0,,21
2012-11-16,55,44,33,32,27,23,70,52,36,30.46,30.41,30.37,10,10,10,10,5,,0.00,0,,34
2012-11-17,59,44,30,34,27,21,69,50,34,30.49,30.43,30.39,10,10,4,7,4,,0.00,0,,50
2012-11-18,62,47,32,37,30,23,70,53,32,30.44,30.38,30.33,10,10,10,8,3,,0.00,0,,107
2012-11-19,64,50,35,39,34,27,70,55,37,30.34,30.27,30.18,10,10,10,6,1,,0.00,2,,319
2012-11-20,69,58,48,48,43,37,72,57,46,30.18,30.14,30.07,10,10,10,12,4,,0.00,2,,251
2012-11-21,64,53,42,46,41,36,76,65,49,30.29,30.23,30.16,10,7,2,9,4,,0.00,0,,7
2012-11-22,68,50,33,46,38,27,81,61,43,30.23,30.17,30.10,10,7,0,12,3,,0.00,1,,188
2012-11-23,59,48,37,48,34,18,77,52,38,30.36,30.24,30.12,10,10,6,17,8,23,0.04,3,,318
2012-11-24,42,35,28,19,17,16,64,50,36,30.40,30.30,30.17,10,10,10,8,5,,0.00,0,,318
2012-11-25,59,44,28,28,23,16,60,46,29,30.16,30.07,30.00,10,10,10,10,5,16,0.00,0,,181
2012-11-26,53,45,37,43,33,25,82,63,49,30.26,30.12,30.06,10,8,1,17,5,23,0.07,7,,107
2012-11-27,44,37,30,30,25,21,75,62,53,30.41,30.35,30.25,10,9,4,16,10,24,0.00,1,,4
2012-11-28,51,38,24,28,22,18,81,60,35,30.50,30.43,30.39,10,8,3,5,0,,0.00,0,,123
2012-11-29,60,43,26,30,23,18,69,47,25,30.39,30.32,30.25,10,10,10,10,4,,0.00,0,,162
2012-11-30,64,50,37,43,36,25,66,54,42,30.28,30.23,30.18,10,10,10,10,6,17,0.00,2,,171